Map

Track Data

SID SEASON NUMBER BASIN SUBBASIN NAME ISO_TIME NATURE LAT LON WMO_WIND WMO_PRES WMO_AGENCY TRACK_TYPE DIST2LAND LANDFALL IFLAG USA_AGENCY USA_ATCF_ID USA_LAT USA_LON USA_RECORD USA_STATUS USA_WIND USA_PRES USA_SSHS USA_R34_NE USA_R34_SE USA_R34_SW USA_R34_NW USA_R50_NE USA_R50_SE USA_R50_SW USA_R50_NW USA_R64_NE USA_R64_SE USA_R64_SW USA_R64_NW USA_POCI USA_ROCI USA_RMW USA_EYE TOKYO_LAT TOKYO_LON TOKYO_GRADE TOKYO_WIND TOKYO_PRES TOKYO_R50_DIR TOKYO_R50_LONG TOKYO_R50_SHORT TOKYO_R30_DIR TOKYO_R30_LONG TOKYO_R30_SHORT TOKYO_LAND CMA_LAT CMA_LON CMA_CAT CMA_WIND CMA_PRES HKO_LAT HKO_LON HKO_CAT HKO_WIND HKO_PRES NEWDELHI_LAT NEWDELHI_LON NEWDELHI_GRADE NEWDELHI_WIND NEWDELHI_PRES NEWDELHI_CI NEWDELHI_DP NEWDELHI_POCI REUNION_LAT REUNION_LON REUNION_TYPE REUNION_WIND REUNION_PRES REUNION_TNUM REUNION_CI REUNION_RMW REUNION_R34_NE REUNION_R34_SE REUNION_R34_SW REUNION_R34_NW REUNION_R50_NE REUNION_R50_SE REUNION_R50_SW REUNION_R50_NW REUNION_R64_NE REUNION_R64_SE REUNION_R64_SW REUNION_R64_NW BOM_LAT BOM_LON BOM_TYPE BOM_WIND BOM_PRES BOM_TNUM BOM_CI BOM_RMW BOM_R34_NE BOM_R34_SE BOM_R34_SW BOM_R34_NW BOM_R50_NE BOM_R50_SE BOM_R50_SW BOM_R50_NW BOM_R64_NE BOM_R64_SE BOM_R64_SW BOM_R64_NW BOM_ROCI BOM_POCI BOM_EYE BOM_POS_METHOD BOM_PRES_METHOD NADI_LAT NADI_LON NADI_CAT NADI_WIND NADI_PRES WELLINGTON_LAT WELLINGTON_LON WELLINGTON_WIND WELLINGTON_PRES DS824_LAT DS824_LON DS824_STAGE DS824_WIND DS824_PRES TD9636_LAT TD9636_LON TD9636_STAGE TD9636_WIND TD9636_PRES TD9635_LAT TD9635_LON TD9635_WIND TD9635_PRES TD9635_ROCI NEUMANN_LAT NEUMANN_LON NEUMANN_CLASS NEUMANN_WIND NEUMANN_PRES MLC_LAT MLC_LON MLC_CLASS MLC_WIND MLC_PRES USA_GUST BOM_GUST BOM_GUST_PER REUNION_GUST REUNION_GUST_PER USA_SEAHGT USA_SEARAD_NE USA_SEARAD_SE USA_SEARAD_SW USA_SEARAD_NW STORM_SPEED STORM_DIR
1932127N15285 1932 24 NA CS NOT_NAMED 1932-05-05 12:00:00 TS 14.7000 -75.0000 25 hurdat_atl main 380 380 O_____________ hurdat_atl AL011932 14.7000 -75.0000 TD 25 -1 2 61
1932127N15285 1932 24 NA CS NOT_NAMED 1932-05-05 15:00:00 TS 14.7500 -74.9075 main 373 370 P_____________ AL011932 14.7500 -74.9075 TD 27 -1 2 63
1932127N15285 1932 24 NA CS NOT_NAMED 1932-05-05 18:00:00 TS 14.8000 -74.8000 30 hurdat_atl main 370 368 O_____________ hurdat_atl AL011932 14.8000 -74.8000 TD 30 -1 3 67
1932127N15285 1932 24 NA CS NOT_NAMED 1932-05-05 21:00:00 TS 14.8500 -74.6650 main 368 352 P_____________ AL011932 14.8500 -74.6650 TD 32 -1 3 71
1932127N15285 1932 24 NA CS NOT_NAMED 1932-05-06 00:00:00 TS 14.9000 -74.5000 35 hurdat_atl main 352 349 O_____________ hurdat_atl AL011932 14.9000 -74.5000 TS 35 0 3 76
1932127N15285 1932 24 NA CS NOT_NAMED 1932-05-06 03:00:00 TS 14.9350 -74.3224 main 349 336 P_____________ AL011932 14.9350 -74.3224 TS 35 0 4 75
1932127N15285 1932 24 NA CS NOT_NAMED 1932-05-06 06:00:00 TS 15.0000 -74.1000 35 hurdat_atl main 336 324 O_____________ hurdat_atl AL011932 15.0000 -74.1000 TS 35 0 5 70
1932127N15285 1932 24 NA CS NOT_NAMED 1932-05-06 09:00:00 TS 15.1049 -73.8448 main 324 302 P_____________ AL011932 15.1049 -73.8448 TS 37 0 7 63
1932127N15285 1932 24 NA CS NOT_NAMED 1932-05-06 12:00:00 TS 15.3000 -73.5000 40 hurdat_atl main 303 278 O_____________ hurdat_atl AL011932 15.3000 -73.5000 TS 40 0 9 58
1932127N15285 1932 24 NA CS NOT_NAMED 1932-05-06 15:00:00 TS 15.5976 -73.0299 main 280 213 P_____________ AL011932 15.5976 -73.0299 TS 40 0 12 54
1932127N15285 1932 24 NA CS NOT_NAMED 1932-05-06 18:00:00 TS 16.0000 -72.5000 40 hurdat_atl main 213 148 O_____________ hurdat_atl AL011932 16.0000 -72.5000 TS 40 0 13 49
1932127N15285 1932 24 NA CS NOT_NAMED 1932-05-06 21:00:00 TS 16.4549 -71.9997 main 138 67 P_____________ AL011932 16.4549 -71.9997 TS 40 0 14 44
1932127N15285 1932 24 NA CS NOT_NAMED 1932-05-07 00:00:00 TS 17.0000 -71.5000 40 hurdat_atl main 67 30 O_____________ hurdat_atl AL011932 17.0000 -71.5000 TS 40 0 15 39
1932127N15285 1932 24 NA CS NOT_NAMED 1932-05-07 03:00:00 TS 17.6199 -70.9997 main 38 0 P_____________ AL011932 17.6199 -70.9997 TS 40 0 16 36
1932127N15285 1932 24 NA NA NOT_NAMED 1932-05-07 06:00:00 TS 18.3000 -70.5000 40 hurdat_atl main 0 0 O_____________ hurdat_atl AL011932 18.3000 -70.5000 TS 40 0 17 35
1932127N15285 1932 24 NA NA NOT_NAMED 1932-05-07 09:00:00 TS 19.0000 -69.9775 main 0 0 P_____________ AL011932 19.0000 -69.9775 TS 42 0 17 34
1932127N15285 1932 24 NA NA NOT_NAMED 1932-05-07 12:00:00 TS 19.7000 -69.5000 45 hurdat_atl main 45 45 O_____________ hurdat_atl AL011932 19.7000 -69.5000 TS 45 0 16 31
1932127N15285 1932 24 NA NA NOT_NAMED 1932-05-07 15:00:00 TS 20.3498 -69.1194 main 113 113 P_____________ AL011932 20.3498 -69.1194 TS 45 0 15 27
1932127N15285 1932 24 NA NA NOT_NAMED 1932-05-07 18:00:00 TS 21.0000 -68.8000 45 hurdat_atl main 197 197 O_____________ hurdat_atl AL011932 21.0000 -68.8000 TS 45 0 15 24
1932127N15285 1932 24 NA NA NOT_NAMED 1932-05-07 21:00:00 TS 21.6999 -68.4848 main 281 281 P_____________ AL011932 21.6999 -68.4848 TS 47 0 15 22
1932127N15285 1932 24 NA NA NOT_NAMED 1932-05-08 00:00:00 TS 22.4000 -68.2000 50 hurdat_atl main 364 364 O_____________ hurdat_atl AL011932 22.4000 -68.2000 TS 50 0 15 20
1932127N15285 1932 24 NA NA NOT_NAMED 1932-05-08 03:00:00 TS 23.0724 -67.9348 main 447 447 P_____________ AL011932 23.0724 -67.9348 TS 50 0 14 20
1932127N15285 1932 24 NA NA NOT_NAMED 1932-05-08 06:00:00 TS 23.7000 -67.7000 50 hurdat_atl main 516 516 O_____________ hurdat_atl AL011932 23.7000 -67.7000 TS 50 0 13 19
1932127N15285 1932 24 NA NA NOT_NAMED 1932-05-08 09:00:00 TS 24.2725 -67.4774 main 585 585 P_____________ AL011932 24.2725 -67.4774 TS 52 0 12 18
1932127N15285 1932 24 NA NA NOT_NAMED 1932-05-08 12:00:00 TS 24.8000 -67.3000 55 hurdat_atl main 644 644 O_____________ hurdat_atl AL011932 24.8000 -67.3000 TS 55 0 11 14
1932127N15285 1932 24 NA NA NOT_NAMED 1932-05-08 15:00:00 TS 25.3225 -67.1773 main 699 699 P_____________ AL011932 25.3225 -67.1773 TS 55 0 10 10
1932127N15285 1932 24 NA NA NOT_NAMED 1932-05-08 18:00:00 TS 25.8000 -67.1000 55 hurdat_atl main 754 754 O_____________ hurdat_atl AL011932 25.8000 -67.1000 TS 55 0 9 8
1932127N15285 1932 24 NA NA NOT_NAMED 1932-05-08 21:00:00 TS 26.2150 -67.0349 main 799 799 P_____________ AL011932 26.2150 -67.0349 TS 55 0 8 6
1932127N15285 1932 24 NA NA NOT_NAMED 1932-05-09 00:00:00 TS 26.6000 -67.0000 55 hurdat_atl main 840 840 O_____________ hurdat_atl AL011932 26.6000 -67.0000 TS 55 0 8 3
1932127N15285 1932 24 NA NA NOT_NAMED 1932-05-09 03:00:00 TS 27.0075 -66.9850 main 881 881 P_____________ AL011932 27.0075 -66.9850 TS 55 0 8 1
1932127N15285 1932 24 NA NA NOT_NAMED 1932-05-09 06:00:00 TS 27.4000 -67.0000 55 hurdat_atl main 921 921 O_____________ hurdat_atl AL011932 27.4000 -67.0000 TS 55 0 7 356
1932127N15285 1932 24 NA NA NOT_NAMED 1932-05-09 09:00:00 TS 27.7500 -67.0425 main 954 948 P_____________ AL011932 27.7500 -67.0425 TS 55 0 7 353
1932127N15285 1932 24 NA NA NOT_NAMED 1932-05-09 12:00:00 TS 28.1000 -67.1000 55 hurdat_atl main 974 974 O_____________ hurdat_atl AL011932 28.1000 -67.1000 TS 55 0 7 353
1932127N15285 1932 24 NA NA NOT_NAMED 1932-05-09 15:00:00 TS 28.4850 -67.1500 main 1003 1003 P_____________ AL011932 28.4850 -67.1500 TS 55 0 8 354
1932127N15285 1932 24 NA NA NOT_NAMED 1932-05-09 18:00:00 TS 28.9000 -67.2000 55 hurdat_atl main 1039 1039 O_____________ hurdat_atl AL011932 28.9000 -67.2000 TS 55 0 9 354
1932127N15285 1932 24 NA NA NOT_NAMED 1932-05-09 21:00:00 TS 29.3350 -67.2427 main 1058 1015 P_____________ AL011932 29.3350 -67.2427 TS 52 0 9 355
1932127N15285 1932 24 NA NA NOT_NAMED 1932-05-10 00:00:00 TS 29.8000 -67.3000 50 hurdat_atl main 1015 978 O_____________ hurdat_atl AL011932 29.8000 -67.3000 TS 50 0 10 353
1932127N15285 1932 24 NA NA NOT_NAMED 1932-05-10 03:00:00 TS 30.2775 -67.3778 main 970 927 P_____________ AL011932 30.2775 -67.3778 TS 47 0 10 350
1932127N15285 1932 24 NA NA NOT_NAMED 1932-05-10 06:00:00 TS 30.8000 -67.5000 45 hurdat_atl main 927 878 O_____________ hurdat_atl AL011932 30.8000 -67.5000 TS 45 0 11 347
1932127N15285 1932 24 NA NA NOT_NAMED 1932-05-10 09:00:00 TS 31.3699 -67.6630 main 871 817 P_____________ AL011932 31.3699 -67.6630 TS 42 0 13 344
1932127N15285 1932 24 NA NA NOT_NAMED 1932-05-10 12:00:00 TS 32.0000 -67.9000 40 hurdat_atl main 817 758 O_____________ hurdat_atl AL011932 32.0000 -67.9000 TS 40 0 14 341
1932127N15285 1932 24 NA NA NOT_NAMED 1932-05-10 15:00:00 TS 32.6696 -68.1838 main 753 684 P_____________ AL011932 32.6696 -68.1838 TS 37 0 15 337
1932127N15285 1932 24 NA NA NOT_NAMED 1932-05-10 18:00:00 TS 33.4000 -68.6000 35 hurdat_atl main 684 603 O_____________ hurdat_atl AL011932 33.4000 -68.6000 TS 35 0 17 331
1932127N15285 1932 24 NA NA NOT_NAMED 1932-05-10 21:00:00 TS 34.1861 -69.1940 main 599 514 P_____________ AL011932 34.1861 -69.1940 TS 32 -1 19 326
1932127N15285 1932 24 NA NA NOT_NAMED 1932-05-11 00:00:00 ET 35.0000 -69.9000 30 hurdat_atl main 514 O_____________ hurdat_atl AL011932 35.0000 -69.9000 EX 30 -4 20 325

About IBTrACS Database

This database is a web-friendly format of International Best Track Archive for Climate Stewardship (IBTrACS), a global best track data archive curated by NOAA dating back to 1842.

Updated: 2021-12-06